Detall de PIREP

Printer-friendly versionPDF version

[2017/02/28 12:33:00]
Flight IATA:CT1004
Pilot Number:012
Company ICAO:CAT
Aircraft Type:DC3/A
PAX:19
Aircraft Registration:PAX
Departing Airport: LFBO
Destination Airport: LEBL
Alternate Airport:LERS
Online: VATSIM
Route:PUMAL
Flight Level:F090
No Slew and time accel
No pause
Crash detect
Detect pilot in Cockpit between each 30 and 45 minutes
12:33 Zero fuel Weight: 20181 Lbs, Fuel Weight: 2030 Lbs
12:33 VATSIM:LFBO 281800Z AUTO 28018KT CAVOK 07/03 Q1013 TEMPO 27020G32KT 4000 SHRA BKN016TCU
12:33 VATSIM:LEBL 281800Z 24015KT 9999 FEW035 14/08 Q1010 NOSIG
12:33 MWC 2017 BARCELONA CHARTER
12:34 Parking Brakes off
12:38 Take-off
12:38 Take off Weight: 22187 Lbs
12:38 Wind: 280º @ 018 Knots Heading: 322º
12:38 POS N43º 37´ 14´´ E001º 22´ 30´´
12:38 Gear Up: 100 Knots
12:47 TOC
12:47 Fuel Weight: 1879 Lb
12:47 TOD
12:47 Fuel Weight: 1879 Lb
12:47 TOC
12:47 Fuel Weight: 1878 Lb
12:53 Wind:291º@033 Knots Heading: 150º Ground Speed: 193 Knots Altitude 8999 ft
13:08 Wind:242º@006 Knots Heading: 180º Ground Speed: 163 Knots Altitude 8969 ft
13:22 TOD
13:22 Fuel Weight: 1480 Lb
13:23 Wind:294º@042 Knots Heading: 152º Ground Speed: 223 Knots Altitude 8261 ft
13:38 Wind:229º@011 Knots Heading: 246º Ground Speed: 144 Knots Altitude 1929 ft
13:38 Flaps:1 at 154 Knots
13:38 Flaps:2 at 141 Knots
13:38 Gear Down: 122 Knots
13:38 Flaps:3 at 123 Knots
13:39 Flaps:4 at 93 Knots
13:41 TouchDown:Rate -131 ft/min Speed: 63 Knots
13:41 Flaps:2 at 53 Knots
13:41 Flaps:0 at 53 Knots
13:42 VATSIM:LEBL 281930Z 25012KT 9999 FEW035 15/08 Q1011 NOSIG
13:42 Land
13:42 Wind:233º@012 Knots
13:42 Heading: 241º
13:42 Flight Duration: 01:04
13:42 Landing Weight: 21473 Lbs
13:42 POS N41º 18´ 03´´ E002º 05´ 24´´
13:50 Parking brakes on
13:50 Block to Block Duration: 01:16
13:50 Final Fuel: 1261 Lbls
13:50 Spent Fuel: 769 Lbls
13:50 Flight Length: 175 NM
13:50 TOD Land Length: 54 NM

Exportar CSV

Powered by Drupal - Modified by Danger4k